EST,Max TemperatureF,Mean TemperatureF,Min TemperatureF,Max Dew PointF,MeanDew PointF,Min DewpointF,Max Humidity, Mean Humidity, Min Humidity, Max Sea Level PressureIn, Mean Sea Level PressureIn, Min Sea Level PressureIn, Max VisibilityMiles, Mean VisibilityMiles, Min VisibilityMiles, Max Wind SpeedMPH, Mean Wind SpeedMPH, Max Gust SpeedMPH,PrecipitationIn, CloudCover, Events, WindDirDegrees
2013-12-1,54,38,22,32,26,19,88,63,38,30.30,30.17,30.00,10,10,7,8,1,11,0.00,2,,270
2013-12-2,51,45,38,38,35,31,82,69,56,29.98,29.88,29.81,10,10,10,6,1,7,T,8,,352
2013-12-3,62,52,42,44,41,37,89,70,51,29.90,29.85,29.81,10,9,7,5,1,7,0.01,7,,31
2013-12-4,71,57,42,47,44,39,89,65,41,29.99,29.92,29.86,10,9,6,13,2,17,0.00,5,,174
2013-12-5,72,60,48,59,52,45,97,75,53,30.03,29.96,29.92,10,9,1,9,2,12,0.05,7,Rain,294
2013-12-6,61,51,41,57,50,38,93,88,82,30.13,29.97,29.86,10,4,0,24,4,31,1.17,8,Fog-Rain-Thunderstorm,333
2013-12-7,42,39,35,37,32,28,92,81,70,30.41,30.31,30.12,10,8,2,12,7,16,T,8,Rain,5
2013-12-8,50,43,36,40,36,30,92,82,71,30.32,30.18,30.05,10,8,2,12,5,15,0.42,8,Rain,61
2013-12-9,50,45,40,45,42,39,96,91,86,30.14,30.09,29.99,10,4,0,10,2,12,0.45,7,Fog-Rain,219
2013-12-10,44,34,23,41,33,19,96,74,52,30.35,30.10,29.94,10,6,0,20,6,25,0.33,6,Fog-Rain,296
2013-12-11,46,33,20,25,19,16,92,65,37,30.45,30.39,30.31,10,6,0,15,2,19,0.00,2,Fog,285
2013-12-12,37,30,22,20,15,10,74,55,35,30.47,30.41,30.36,10,10,10,15,5,18,0.00,1,,255
2013-12-13,46,32,18,25,18,13,84,56,28,30.40,30.31,30.20,10,10,8,6,0,12,0.00,3,,180
2013-12-14,47,42,36,41,35,21,92,72,52,30.14,29.92,29.75,10,8,2,9,3,17,0.69,8,Rain,62
2013-12-15,47,40,32,43,30,24,89,79,69,30.14,29.98,29.75,10,9,2,17,10,23,0.04,8,Rain-Snow,260
2013-12-16,49,39,29,29,26,24,85,66,46,30.22,30.15,30.07,10,10,7,15,6,19,0.00,6,,241
2013-12-17,54,40,26,34,27,17,92,67,41,30.15,30.07,29.93,10,9,2,25,9,34,0.02,4,Rain,265
2013-12-18,44,34,24,20,18,16,74,53,31,30.30,30.26,30.15,10,10,10,15,5,19,0.00,0,,253
2013-12-19,55,38,21,27,21,16,84,55,26,30.32,30.24,30.14,10,10,10,6,0,9,0.00,4,,100
2013-12-20,63,46,29,36,29,24,85,56,27,30.19,30.12,30.05,10,10,10,7,1,9,0.00,7,,308
2013-12-21,74,58,41,56,47,35,79,64,49,30.04,29.93,29.80,10,10,10,18,6,24,0.00,7,,172
2013-12-22,73,63,52,56,52,50,96,75,53,30.07,29.97,29.79,10,5,1,28,6,40,1.56,8,Rain,197
2013-12-23,54,44,34,52,41,25,93,82,70,30.29,30.15,29.99,10,6,1,18,6,24,0.37,8,Rain,317
2013-12-24,35,28,20,24,18,10,73,58,43,30.46,30.36,30.27,10,10,10,18,8,25,0.00,5,,307
2013-12-25,43,30,16,18,14,10,80,55,30,30.46,30.38,30.29,10,10,10,10,2,12,0.00,0,,345
2013-12-26,46,34,21,25,20,17,88,63,37,30.37,30.34,30.29,10,10,9,13,3,20,0.00,2,,288
2013-12-27,49,34,19,23,19,16,91,61,31,30.48,30.41,30.35,10,10,10,7,1,10,0.00,1,,250
2013-12-28,44,32,20,37,26,16,92,73,53,30.41,30.28,30.06,10,8,2,8,1,9,0.48,6,Rain,10
2013-12-29,46,43,39,43,41,36,96,90,83,30.01,29.89,29.78,10,6,1,18,8,24,0.75,8,Rain,229
2013-12-30,42,39,35,38,34,29,86,78,70,30.19,30.08,29.99,10,10,8,15,6,17,T,8,Rain,256
2013-12-31,40,32,24,29,24,20,92,68,44,30.38,30.29,30.18,10,10,7,16,5,19,0.00,3,,235